Ladore — HBY4456 — position and weather

sailwx.info

Track history (hours):
 
Tides and Currents Weather Stations Pressure Air Temp Water Temp Dewpoint Dewpoint Depression Visibility Wind Speed Wind Dir Waves Ship Positions

Ladore

Last reported at 2016-Oct-05 10:31 UTC. Time now 2016-Dec-09 00:09 UTC.
Position N 38°58' E 009°12'.
Warning: this ship's position is months out of date.

Length 17 m.

Type: Sailing vessel. MMSI: 269102720.

Date/timePositionNaut miles runAvg speedWind from/ knotsBaromVisibWave heightAir tempDewpointWater temp
2016-Oct-05 10:31N 38°58' E 009°12'6 5.7
2016-Oct-05 09:32N 39°02' E 009°17'7 0.2
2016-Oct-03 10:31N 39°09' E 009°15'4 4.3
2016-Oct-03 09:33N 39°10' E 009°10'3 0.9
2016-Oct-03 05:33N 39°13' E 009°07'0 0.0
2016-Oct-03 04:33N 39°13' E 009°07'0 0.0
2016-Oct-02 18:33N 39°13' E 009°07'0 0.0
2016-Oct-02 15:27N 39°13' E 009°07'0 0.0
2016-Oct-02 14:33N 39°13' E 009°07'0 0.0
2016-Oct-02 12:33N 39°13' E 009°07'0 0.0
2016-Oct-02 09:33N 39°13' E 009°07'0 0.0
2016-Oct-02 08:33N 39°13' E 009°07'0 0.0
2016-Oct-02 07:33N 39°13' E 009°07'0 0.0
2016-Oct-01 22:33N 39°13' E 009°07'0 0.0
2016-Oct-01 21:33N 39°13' E 009°07'0 0.0
2016-Oct-01 20:33N 39°13' E 009°07'0 0.0
2016-Oct-01 15:33N 39°13' E 009°07'0 0.0
2016-Oct-01 14:33N 39°13' E 009°07'0 0.0
2016-Oct-01 13:33N 39°13' E 009°07'0 0.0
2016-Oct-01 04:33N 39°13' E 009°07'0 0.0
2016-Oct-01 03:33N 39°13' E 009°07'0 0.0
2016-Oct-01 00:33N 39°13' E 009°07'0 0.0
2016-Sep-30 22:33N 39°13' E 009°07'0 0.0
2016-Sep-30 20:33N 39°13' E 009°07'0 0.0
2016-Sep-30 17:33N 39°13' E 009°07'0 0.0
2016-Sep-30 16:33N 39°13' E 009°07'0 0.0
2016-Sep-30 14:33N 39°13' E 009°07'0 0.0
2016-Sep-30 13:33N 39°13' E 009°07'  
Track history (hours):
 
Tides and Currents Weather Stations Pressure Air Temp Water Temp Dewpoint Dewpoint Depression Visibility Wind Speed Wind Dir Waves Ship Positions

Ladore

Last reported at 2016-Oct-05 10:31 UTC. Time now 2016-Dec-09 00:09 UTC.
Position N 38°58' E 009°12'.
Warning: this ship's position is months out of date.

Length 17 m.

Type: Sailing vessel. MMSI: 269102720.

Date/timePositionNaut miles runAvg speedWind from/ knotsBaromVisibWave heightAir tempDewpointWater temp
2016-Oct-05 10:31N 38°58' E 009°12'6 5.7
2016-Oct-05 09:32N 39°02' E 009°17'7 0.2
2016-Oct-03 10:31N 39°09' E 009°15'4 4.3
2016-Oct-03 09:33N 39°10' E 009°10'3 0.9
2016-Oct-03 05:33N 39°13' E 009°07'0 0.0
2016-Oct-03 04:33N 39°13' E 009°07'0 0.0
2016-Oct-02 18:33N 39°13' E 009°07'0 0.0
2016-Oct-02 15:27N 39°13' E 009°07'0 0.0
2016-Oct-02 14:33N 39°13' E 009°07'0 0.0
2016-Oct-02 12:33N 39°13' E 009°07'0 0.0
2016-Oct-02 09:33N 39°13' E 009°07'0 0.0
2016-Oct-02 08:33N 39°13' E 009°07'0 0.0
2016-Oct-02 07:33N 39°13' E 009°07'0 0.0
2016-Oct-01 22:33N 39°13' E 009°07'0 0.0
2016-Oct-01 21:33N 39°13' E 009°07'0 0.0
2016-Oct-01 20:33N 39°13' E 009°07'0 0.0
2016-Oct-01 15:33N 39°13' E 009°07'0 0.0
2016-Oct-01 14:33N 39°13' E 009°07'0 0.0
2016-Oct-01 13:33N 39°13' E 009°07'0 0.0
2016-Oct-01 04:33N 39°13' E 009°07'0 0.0
2016-Oct-01 03:33N 39°13' E 009°07'0 0.0
2016-Oct-01 00:33N 39°13' E 009°07'0 0.0
2016-Sep-30 22:33N 39°13' E 009°07'0 0.0
2016-Sep-30 20:33N 39°13' E 009°07'0 0.0
2016-Sep-30 17:33N 39°13' E 009°07'0 0.0
2016-Sep-30 16:33N 39°13' E 009°07'0 0.0
2016-Sep-30 14:33N 39°13' E 009°07'0 0.0
2016-Sep-30 13:33N 39°13' E 009°07'  

Dump ship's entire track history